Time;durP1;ratioP1;P1;durP2;ratioP2;P2;SDS_P1;SDS_P2;PMS_P1;PMS_P2;Temp;Humidity;BMP_temperature;BMP_pressure;BME280_temperature;BME280_humidity;BME280_pressure;Samples;Min_cycle;Max_cycle;Signal;HPM_P1;HPM_P2
2022/12/29 00:01:53;;;;;;;2.27;2.00;;;;;;;8.09;76.97;95067.63;5038861;28;20213;-82
2022/12/29 00:04:19;;;;;;;2.23;1.30;;;;;;;8.03;77.01;95069.97;5033197;28;20183;-84
2022/12/29 00:06:44;;;;;;;4.90;2.27;;;;;;;7.84;78.98;95057.94;5026376;28;20214;-84
2022/12/29 00:09:13;;;;;;;3.73;2.10;;;;;;;7.59;79.86;95070.56;5037816;28;20201;-85
2022/12/29 00:11:38;;;;;;;4.33;1.90;;;;;;;7.46;81.75;95057.13;5035005;28;20202;-85
2022/12/29 00:16:47;;;;;;;1.97;1.63;;;;;;;7.11;83.78;95065.50;5028759;28;20299;-84
2022/12/29 00:36:26;;;;;;;2.27;1.87;;;;;;;6.88;86.36;95053.84;5022101;28;20666;-85
2022/12/29 00:44:23;;;;;;;1.63;1.40;;;;;;;7.53;80.01;95049.66;5030143;28;20670;-86
2022/12/29 00:46:48;;;;;;;4.03;1.73;;;;;;;7.99;77.31;95046.19;5020267;28;20215;-85
2022/12/29 00:49:32;;;;;;;5.80;2.07;;;;;;;8.18;75.04;95051.25;5025146;28;20205;-84
2022/12/29 00:52:11;;;;;;;3.63;1.60;;;;;;;8.63;72.64;95050.44;5016916;28;20216;-85
2022/12/29 00:54:37;;;;;;;2.33;1.43;;;;;;;8.60;72.92;95058.50;5018349;28;20187;-85
2022/12/29 00:57:04;;;;;;;5.70;1.83;;;;;;;8.74;72.20;95063.16;5015015;28;20206;-85
2022/12/29 00:59:30;;;;;;;4.70;1.63;;;;;;;8.76;72.92;95061.25;5018150;28;20186;-86
2022/12/29 01:01:55;;;;;;;4.70;1.20;;;;;;;8.90;72.68;95059.09;5017512;28;20277;-84
2022/12/29 01:04:22;;;;;;;3.37;1.37;;;;;;;8.91;72.50;95058.13;5016781;28;20186;-85
2022/12/29 01:06:47;;;;;;;4.50;1.53;;;;;;;8.91;73.25;95068.47;5019652;28;20675;-85
2022/12/29 01:11:56;;;;;;;2.23;1.50;;;;;;;9.07;71.77;95053.09;5021263;28;20221;-85
2022/12/29 01:14:22;;;;;;;2.53;1.27;;;;;;;9.08;71.59;95058.09;5030194;28;20194;-85
2022/12/29 01:16:48;;;;;;;2.60;1.27;;;;;;;9.04;70.96;95069.75;5029642;28;20229;-83
2022/12/29 01:19:14;;;;;;;3.23;1.30;;;;;;;9.21;70.44;95065.50;5030418;28;20201;-83
2022/12/29 01:21:39;;;;;;;3.63;1.30;;;;;;;9.16;70.72;95059.94;5026022;28;20207;-82
2022/12/29 01:24:05;;;;;;;1.73;1.20;;;;;;;9.21;70.50;95068.09;5025277;28;20638;-83
2022/12/29 01:26:30;;;;;;;2.63;1.40;;;;;;;9.23;69.42;95062.75;5015668;28;20718;-83
2022/12/29 01:28:55;;;;;;;2.50;1.30;;;;;;;9.34;69.39;95065.09;5022412;28;20195;-82
2022/12/29 01:31:21;;;;;;;3.37;1.80;;;;;;;9.41;68.28;95052.34;5015452;28;20187;-85
2022/12/29 01:33:46;;;;;;;3.37;1.30;;;;;;;9.56;67.64;95068.97;5035164;28;20193;-81
2022/12/29 01:36:14;;;;;;;2.73;1.20;;;;;;;9.62;67.55;95053.59;5015858;28;20193;-84
2022/12/29 01:38:40;;;;;;;2.87;1.00;;;;;;;9.73;66.21;95033.59;5024872;28;20843;-83
2022/12/29 01:41:06;;;;;;;2.20;1.20;;;;;;;9.84;65.52;95077.41;5019690;28;20833;-82
2022/12/29 01:43:41;;;;;;;1.20;1.10;;;;;;;9.97;65.00;95051.84;5003456;28;20194;-83
2022/12/29 01:46:14;;;;;;;2.17;1.00;;;;;;;9.96;64.39;95052.00;5025427;28;20284;-82
2022/12/29 01:48:40;;;;;;;3.17;1.27;;;;;;;9.93;64.96;95027.19;5025436;28;20191;-83
2022/12/29 01:51:06;;;;;;;1.93;1.00;;;;;;;9.91;64.55;95042.91;5026597;28;20567;-84
2022/12/29 01:53:32;;;;;;;1.50;1.40;;;;;;;9.99;64.92;95038.72;5004707;28;20282;-83
2022/12/29 01:56:00;;;;;;;1.83;1.20;;;;;;;9.99;64.90;95038.72;5023899;28;20190;-84
2022/12/29 01:58:29;;;;;;;2.03;0.90;;;;;;;9.85;65.09;95033.16;5030487;28;20277;-85
2022/12/29 02:00:54;;;;;;;1.47;0.87;;;;;;;9.93;64.66;95038.38;5034547;28;20269;-85
2022/12/29 02:03:21;;;;;;;3.30;1.10;;;;;;;9.96;64.04;95046.81;5027582;28;20217;-85
2022/12/29 02:05:54;;;;;;;2.37;1.40;;;;;;;10.04;64.02;95037.28;5007117;28;20745;-83
2022/12/29 02:08:22;;;;;;;3.57;1.03;;;;;;;10.10;63.95;95038.44;5025261;28;20210;-84
2022/12/29 02:10:48;;;;;;;3.30;1.10;;;;;;;9.99;64.54;95029.16;5004718;28;20221;-84
2022/12/29 02:13:16;;;;;;;1.20;1.00;;;;;;;10.05;64.42;95027.72;5027223;28;20222;-84
2022/12/29 02:16:01;;;;;;;2.63;1.13;;;;;;;10.08;63.93;95032.59;5005618;28;20211;-84
2022/12/29 02:18:49;;;;;;;2.67;1.30;;;;;;;10.13;63.77;95033.75;5031859;28;20214;-83
2022/12/29 02:21:31;;;;;;;1.80;1.20;;;;;;;10.09;64.16;95034.22;5023578;28;20647;-83
2022/12/29 02:24:10;;;;;;;1.60;0.97;;;;;;;10.06;63.88;95027.56;5019517;28;20191;-84
2022/12/29 02:27:01;;;;;;;2.00;1.00;;;;;;;10.16;63.70;95015.28;5017389;28;20218;-83
2022/12/29 02:29:42;;;;;;;2.17;1.00;;;;;;;9.99;64.23;95013.59;5028026;28;20806;-83
2022/12/29 02:32:19;;;;;;;2.93;0.97;;;;;;;9.94;64.37;95008.88;5030188;28;20174;-83
2022/12/29 02:34:59;;;;;;;2.83;1.10;;;;;;;9.98;64.61;95024.09;5016923;28;20797;-84
2022/12/29 02:37:55;;;;;;;3.60;1.27;;;;;;;10.00;64.44;95010.03;5021312;28;20258;-84
2022/12/29 02:40:46;;;;;;;2.03;0.93;;;;;;;9.97;64.55;95022.50;5007172;28;20183;-84
2022/12/29 02:43:35;;;;;;;1.63;1.00;;;;;;;9.98;65.09;95014.53;5014264;28;20199;-83
2022/12/29 02:46:08;;;;;;;2.23;1.20;;;;;;;9.89;64.71;95024.09;5025518;28;20679;-83
2022/12/29 02:48:54;;;;;;;1.80;1.20;;;;;;;9.90;65.08;95009.34;5005481;28;20276;-85
2022/12/29 02:51:34;;;;;;;1.97;1.30;;;;;;;9.92;65.68;95008.22;5015550;28;20683;-83
2022/12/29 02:56:44;;;;;;;1.90;1.00;;;;;;;9.92;65.52;95022.97;5028745;28;20229;-84
2022/12/29 02:59:10;;;;;;;2.83;1.40;;;;;;;9.97;65.33;95023.31;5033486;28;20187;-84
2022/12/29 03:04:41;;;;;;;1.77;1.27;;;;;;;10.01;65.50;95024.63;5025071;28;20323;-84
2022/12/29 03:07:16;;;;;;;2.40;1.50;;;;;;;10.01;65.39;95008.25;5019010;28;20237;-84
2022/12/29 03:10:01;;;;;;;3.63;1.37;;;;;;;10.01;64.87;95016.84;5032784;28;20189;-84
2022/12/29 03:16:06;;;;;;;2.43;1.30;;;;;;;10.15;65.08;95015.41;5033666;28;20241;-83
2022/12/29 03:19:07;;;;;;;2.33;1.23;;;;;;;10.08;65.45;95006.66;5026093;28;20210;-84
2022/12/29 03:24:25;;;;;;;2.93;1.50;;;;;;;10.13;65.21;94989.63;4934859;29;20200;-84
2022/12/29 03:26:51;;;;;;;2.50;1.00;;;;;;;10.05;65.44;94986.19;4938546;29;20694;-84
2022/12/29 03:29:17;;;;;;;2.83;1.23;;;;;;;10.02;65.31;94992.53;4907450;29;20225;-84
2022/12/29 03:31:42;;;;;;;3.97;1.37;;;;;;;9.94;65.39;94990.72;4936772;29;20200;-83
2022/12/29 03:34:08;;;;;;;2.50;1.23;;;;;;;10.04;64.79;94989.78;4927225;29;20602;-84
2022/12/29 03:36:40;;;;;;;2.50;1.03;;;;;;;10.00;64.71;94986.69;4933938;29;20304;-85
2022/12/29 03:39:11;;;;;;;1.43;1.20;;;;;;;9.98;65.19;94982.59;4924856;28;20201;-83
2022/12/29 03:41:38;;;;;;;1.77;1.20;;;;;;;9.85;65.59;94994.25;4909444;29;20196;-83
2022/12/29 03:44:06;;;;;;;2.30;1.13;;;;;;;9.92;65.36;94994.44;4966375;28;20184;-83
2022/12/29 03:46:31;;;;;;;1.90;1.00;;;;;;;9.88;65.96;94993.94;4951706;28;20221;-84
2022/12/29 03:48:57;;;;;;;2.80;1.10;;;;;;;9.74;66.54;94991.94;4961110;28;20285;-83
2022/12/29 03:51:22;;;;;;;1.43;1.00;;;;;;;9.65;66.56;94974.72;4955175;28;20220;-85
2022/12/29 03:53:47;;;;;;;1.30;1.00;;;;;;;9.78;66.24;94980.28;4952693;28;20193;-84
2022/12/29 03:56:13;;;;;;;0.93;0.80;;;;;;;9.82;66.38;94994.56;5012361;28;20268;-85
2022/12/29 03:58:38;;;;;;;1.70;0.90;;;;;;;9.81;66.32;94992.94;5021510;28;20198;-85
2022/12/29 04:01:03;;;;;;;2.47;1.10;;;;;;;9.82;66.24;95002.34;5037154;28;20193;-84
2022/12/29 04:03:29;;;;;;;1.77;1.10;;;;;;;9.78;66.36;94995.03;5044068;28;20187;-84
2022/12/29 04:05:54;;;;;;;2.67;0.90;;;;;;;9.84;66.22;94997.00;5034321;28;20189;-85
2022/12/29 04:08:19;;;;;;;1.17;1.07;;;;;;;9.79;66.07;94992.28;5031534;28;20211;-84
2022/12/29 04:10:44;;;;;;;1.10;0.90;;;;;;;9.77;66.46;95004.59;5015526;28;20194;-84
2022/12/29 04:13:10;;;;;;;2.00;1.30;;;;;;;9.93;65.50;94993.47;5028581;28;20183;-85
2022/12/29 04:15:35;;;;;;;3.37;1.30;;;;;;;9.90;65.64;94994.59;5028356;28;20198;-83
2022/12/29 04:18:01;;;;;;;1.63;1.17;;;;;;;9.89;65.27;94990.41;5019892;28;20210;-83
2022/12/29 04:23:10;;;;;;;1.13;1.03;;;;;;;9.75;65.77;94982.38;5023076;28;20218;-85
2022/12/29 04:25:35;;;;;;;1.80;1.30;;;;;;;9.79;65.96;94976.72;5017147;28;20187;-85
2022/12/29 04:28:00;;;;;;;3.63;1.43;;;;;;;9.54;66.95;94981.00;5027182;28;20695;-84
2022/12/29 04:30:26;;;;;;;2.90;1.20;;;;;;;9.56;66.91;94988.63;5023019;28;20182;-83
2022/12/29 04:32:52;;;;;;;1.27;1.03;;;;;;;9.65;67.14;94966.94;5031014;28;20182;-83
2022/12/29 04:35:17;;;;;;;1.40;0.90;;;;;;;9.69;66.92;94963.06;5007896;28;20277;-84
2022/12/29 04:37:43;;;;;;;1.50;1.00;;;;;;;9.70;66.65;94975.06;5025980;28;20234;-84
2022/12/29 04:40:09;;;;;;;4.27;1.33;;;;;;;9.69;67.03;94977.81;5022430;28;20216;-85
2022/12/29 04:42:34;;;;;;;2.30;1.00;;;;;;;9.60;67.58;94985.56;5030814;28;20186;-84
2022/12/29 04:44:59;;;;;;;2.70;1.30;;;;;;;9.74;67.08;94976.38;5028954;28;20186;-84
2022/12/29 04:47:25;;;;;;;2.20;1.20;;;;;;;9.52;68.07;94971.75;5022732;28;20220;-84
2022/12/29 04:49:50;;;;;;;1.30;1.10;;;;;;;9.60;67.77;94956.22;5030228;28;20194;-84
2022/12/29 04:52:15;;;;;;;1.50;1.00;;;;;;;9.45;68.61;94961.16;5024642;28;20240;-86
2022/12/29 04:54:40;;;;;;;4.70;1.47;;;;;;;9.51;68.02;94970.13;5026763;28;20248;-84
2022/12/29 04:57:06;;;;;;;2.30;1.00;;;;;;;9.58;67.97;94958.97;5032327;28;20232;-84
2022/12/29 04:59:31;;;;;;;4.83;1.50;;;;;;;9.47;68.79;94961.03;5022380;28;20240;-86
2022/12/29 05:01:56;;;;;;;1.17;1.07;;;;;;;9.47;68.68;94966.22;5021027;28;20543;-83
2022/12/29 05:04:25;;;;;;;3.83;1.47;;;;;;;9.42;69.39;94969.25;5025920;28;20299;-86
2022/12/29 05:06:50;;;;;;;1.73;1.20;;;;;;;9.49;68.78;94961.69;5019704;28;20210;-85
2022/12/29 05:09:15;;;;;;;1.43;1.20;;;;;;;9.55;68.94;94969.66;5028075;28;20666;-86
2022/12/29 05:11:41;;;;;;;6.23;1.30;;;;;;;9.47;69.38;94979.19;5025285;28;20191;-85
2022/12/29 05:14:06;;;;;;;2.57;1.30;;;;;;;9.51;69.63;94988.25;5027944;28;20191;-84
2022/12/29 05:16:31;;;;;;;1.63;1.40;;;;;;;9.41;69.89;94990.97;5029703;28;20241;-86
2022/12/29 05:18:57;;;;;;;2.80;1.20;;;;;;;9.49;69.86;94970.28;5020076;28;20201;-84
2022/12/29 05:21:22;;;;;;;1.93;1.47;;;;;;;9.42;70.23;94973.63;5015202;28;20245;-84
2022/12/29 05:23:47;;;;;;;1.83;1.50;;;;;;;9.43;70.22;94983.84;5037672;28;20725;-84
2022/12/29 05:26:15;;;;;;;2.93;1.70;;;;;;;9.35;70.44;94982.03;5028292;28;20206;-84
2022/12/29 05:28:40;;;;;;;1.43;1.20;;;;;;;9.27;71.04;94971.59;5028152;28;20183;-84
2022/12/29 05:31:05;;;;;;;1.30;1.20;;;;;;;9.33;70.91;94983.16;5022931;28;20281;-85
2022/12/29 05:33:31;;;;;;;2.37;1.10;;;;;;;9.44;70.43;94993.25;5038310;28;20192;-85
2022/12/29 05:35:56;;;;;;;4.00;1.60;;;;;;;9.56;70.24;94996.41;5032826;28;20186;-84
2022/12/29 05:38:21;;;;;;;5.13;1.30;;;;;;;9.58;70.02;94992.69;5018543;28;20247;-84
2022/12/29 05:40:46;;;;;;;2.07;1.20;;;;;;;9.51;70.12;94988.25;5027498;28;20217;-84
2022/12/29 05:43:12;;;;;;;1.90;1.30;;;;;;;9.45;70.31;94989.69;5023962;28;20713;-84
2022/12/29 05:45:37;;;;;;;2.20;1.23;;;;;;;9.54;70.59;94983.59;5019659;28;20186;-84
2022/12/29 05:48:03;;;;;;;3.53;1.33;;;;;;;9.51;70.60;94973.53;5031192;28;20299;-85
2022/12/29 05:50:28;;;;;;;2.43;1.47;;;;;;;9.57;70.39;94972.91;5018586;28;20400;-85
2022/12/29 05:52:53;;;;;;;2.83;1.30;;;;;;;9.64;69.96;94962.75;5029600;28;20265;-85
2022/12/29 05:55:19;;;;;;;1.63;1.30;;;;;;;9.62;70.36;94954.28;5025270;28;20195;-86
2022/12/29 05:57:44;;;;;;;2.07;1.30;;;;;;;9.60;70.35;94966.59;5010017;28;20232;-85
2022/12/29 06:00:10;;;;;;;3.90;1.60;;;;;;;9.46;71.00;94978.38;5034178;28;20190;-85
2022/12/29 06:02:35;;;;;;;3.03;1.30;;;;;;;9.45;71.15;94978.50;5032382;28;20291;-85
2022/12/29 06:05:01;;;;;;;2.57;1.50;;;;;;;9.47;70.98;94980.00;5027651;28;20236;-87
2022/12/29 06:07:26;;;;;;;3.00;1.70;;;;;;;9.42;71.14;94982.22;5029325;28;20327;-85
2022/12/29 06:09:51;;;;;;;2.87;1.83;;;;;;;9.46;70.59;94974.97;5030803;28;20245;-86
2022/12/29 06:12:17;;;;;;;3.27;1.40;;;;;;;9.50;71.01;94978.88;5030548;28;20197;-85
2022/12/29 06:14:42;;;;;;;2.40;1.30;;;;;;;9.46;70.75;94988.75;5026502;28;20253;-84
2022/12/29 06:17:07;;;;;;;1.30;1.20;;;;;;;9.43;70.87;94972.66;5020185;28;20216;-85
2022/12/29 06:19:32;;;;;;;2.90;1.43;;;;;;;9.50;70.50;94979.69;5031833;28;20276;-85
2022/12/29 06:21:58;;;;;;;2.50;1.30;;;;;;;9.44;70.38;94977.69;5027284;28;20195;-84
2022/12/29 06:24:23;;;;;;;2.07;1.37;;;;;;;9.46;70.60;94975.78;5029540;28;20182;-84
2022/12/29 06:26:48;;;;;;;1.40;1.27;;;;;;;9.52;70.27;94971.75;5007967;28;20864;-85
2022/12/29 06:29:17;;;;;;;2.30;1.53;;;;;;;9.52;70.30;94987.28;5024638;28;20288;-84
2022/12/29 06:31:45;;;;;;;2.80;1.33;;;;;;;9.52;70.29;94984.69;5022925;28;20183;-85
2022/12/29 06:34:11;;;;;;;3.13;1.53;;;;;;;9.55;69.83;94987.81;5031451;28;20190;-84
2022/12/29 06:36:36;;;;;;;5.57;1.40;;;;;;;9.63;69.99;94976.69;5018498;28;20206;-85
2022/12/29 06:39:02;;;;;;;3.83;1.60;;;;;;;9.47;69.91;94976.59;5029494;28;20686;-84
2022/12/29 06:41:27;;;;;;;2.60;1.17;;;;;;;9.50;69.82;94971.09;5033374;28;20234;-85
2022/12/29 06:43:52;;;;;;;3.27;1.50;;;;;;;9.54;69.97;94978.41;5021594;28;20191;-85
2022/12/29 06:46:20;;;;;;;1.43;1.30;;;;;;;9.60;69.46;94974.38;5024359;28;20218;-86
2022/12/29 06:48:46;;;;;;;1.70;1.30;;;;;;;9.48;69.79;94983.41;5028915;28;20249;-84
2022/12/29 06:51:11;;;;;;;3.37;1.40;;;;;;;9.52;69.41;94979.50;5030785;28;20294;-85
2022/12/29 06:53:36;;;;;;;1.70;1.50;;;;;;;9.52;69.39;94976.94;5024575;28;20187;-85
2022/12/29 06:56:02;;;;;;;2.77;1.37;;;;;;;9.49;69.54;94967.69;5023920;28;20186;-85
2022/12/29 06:58:27;;;;;;;3.70;1.60;;;;;;;9.51;69.34;94964.94;5020487;28;20237;-85
2022/12/29 07:00:52;;;;;;;5.37;1.80;;;;;;;9.51;69.69;94972.72;5018438;28;20218;-84
2022/12/29 07:03:17;;;;;;;3.30;1.50;;;;;;;9.50;69.39;94971.09;5024836;28;20566;-84
2022/12/29 07:05:43;;;;;;;2.67;1.77;;;;;;;9.42;69.36;94978.81;5018754;28;20242;-84
2022/12/29 07:08:08;;;;;;;3.70;1.70;;;;;;;9.52;69.12;94969.16;5014765;28;20219;-85
2022/12/29 07:10:34;;;;;;;2.80;1.60;;;;;;;9.38;68.96;94975.75;5020876;28;20820;-84
2022/12/29 07:12:59;;;;;;;3.20;1.50;;;;;;;9.57;68.58;94985.88;5016022;28;20233;-84
2022/12/29 07:15:24;;;;;;;2.17;1.57;;;;;;;9.64;68.41;94979.09;5031258;28;20658;-85
2022/12/29 07:17:49;;;;;;;2.23;1.50;;;;;;;9.64;68.03;94984.28;5022080;28;20239;-85
2022/12/29 07:20:15;;;;;;;2.13;1.67;;;;;;;9.68;68.09;94977.00;5023708;28;20192;-84
2022/12/29 07:22:40;;;;;;;2.80;1.50;;;;;;;9.72;67.33;94978.34;5013362;28;20249;-84
2022/12/29 07:25:06;;;;;;;2.80;1.73;;;;;;;9.73;67.73;94973.97;5027099;28;20199;-85
2022/12/29 07:27:31;;;;;;;3.17;2.00;;;;;;;9.85;66.56;94985.66;5008926;28;20694;-84
2022/12/29 07:29:56;;;;;;;2.67;1.47;;;;;;;9.81;66.38;94985.16;5018250;28;20642;-84
2022/12/29 07:32:21;;;;;;;3.77;1.90;;;;;;;9.78;66.17;94995.84;5014765;28;20198;-85
2022/12/29 07:34:47;;;;;;;2.17;1.70;;;;;;;9.84;66.05;94991.81;5015543;28;20187;-84
2022/12/29 07:37:13;;;;;;;4.87;1.70;;;;;;;9.89;65.98;94992.16;5020463;28;20864;-85
2022/12/29 07:39:39;;;;;;;3.27;1.70;;;;;;;9.84;65.81;95000.41;5028416;28;20190;-85
2022/12/29 07:42:04;;;;;;;3.63;1.70;;;;;;;9.96;65.71;95000.94;5032107;28;20247;-86
2022/12/29 07:44:49;;;;;;;3.07;1.83;;;;;;;9.98;65.13;95003.34;5026607;28;20186;-89
2022/12/29 07:47:17;;;;;;;2.20;1.57;;;;;;;10.00;64.78;95001.44;5023814;28;20219;-86
2022/12/29 07:49:42;;;;;;;2.37;1.90;;;;;;;9.98;64.76;95005.97;5019882;28;20191;-86
2022/12/29 07:52:08;;;;;;;4.17;1.80;;;;;;;10.06;64.10;95003.38;5026661;28;20197;-85
2022/12/29 07:54:33;;;;;;;1.83;1.47;;;;;;;10.05;64.50;95009.56;5023618;28;20662;-84
2022/12/29 07:57:00;;;;;;;5.03;2.03;;;;;;;10.08;64.56;95012.66;5011915;28;20701;-85
2022/12/29 07:59:25;;;;;;;4.33;2.13;;;;;;;10.04;64.29;95015.72;5019166;28;20198;-84
2022/12/29 08:01:50;;;;;;;1.80;1.50;;;;;;;10.17;63.79;95018.69;5023352;28;20199;-84
2022/12/29 08:04:16;;;;;;;4.00;1.57;;;;;;;10.13;64.10;95025.16;5030611;28;20190;-84
2022/12/29 08:06:41;;;;;;;2.00;1.50;;;;;;;10.16;64.01;95027.44;5020317;28;20654;-87
2022/12/29 08:09:07;;;;;;;2.87;1.53;;;;;;;10.17;63.81;95027.28;5025382;28;20187;-84
2022/12/29 08:11:34;;;;;;;3.57;1.43;;;;;;;10.33;63.81;95026.53;5019831;28;20206;-84
2022/12/29 08:13:59;;;;;;;2.63;1.70;;;;;;;10.22;63.33;95026.81;5022868;28;20562;-84
2022/12/29 08:16:24;;;;;;;3.13;1.57;;;;;;;10.13;63.78;95023.34;5003787;28;20215;-85
2022/12/29 08:18:50;;;;;;;2.10;1.53;;;;;;;10.29;63.38;95030.41;5019905;28;20183;-83
2022/12/29 08:21:15;;;;;;;1.87;1.73;;;;;;;10.24;63.39;95011.09;5021459;28;20203;-85
2022/12/29 08:23:40;;;;;;;2.27;1.67;;;;;;;10.27;63.47;95011.59;5028173;28;20237;-85
2022/12/29 08:26:06;;;;;;;2.60;1.40;;;;;;;10.24;63.11;95011.09;5024643;28;20246;-85
2022/12/29 08:28:32;;;;;;;4.03;1.63;;;;;;;10.37;63.09;95022.66;5020172;28;20222;-84
2022/12/29 08:30:59;;;;;;;4.17;1.57;;;;;;;10.56;62.26;95031.13;5006904;28;20194;-85
2022/12/29 08:33:25;;;;;;;2.27;1.40;;;;;;;10.35;62.85;95028.97;5000918;28;20244;-86
2022/12/29 08:35:50;;;;;;;4.40;2.00;;;;;;;10.44;62.77;95039.22;5010713;28;20198;-84
2022/12/29 08:38:18;;;;;;;2.63;1.70;;;;;;;10.46;62.92;95041.66;5015614;28;20228;-84
2022/12/29 08:40:43;;;;;;;2.73;1.50;;;;;;;10.47;62.36;95028.50;5012373;28;20241;-85
2022/12/29 08:43:09;;;;;;;2.17;1.50;;;;;;;10.58;61.69;95042.16;5014373;28;20277;-85
2022/12/29 08:45:35;;;;;;;2.00;1.73;;;;;;;10.68;61.61;95040.22;5002664;28;20228;-85
2022/12/29 08:48:00;;;;;;;2.57;1.40;;;;;;;10.66;61.39;95047.38;5026226;28;20225;-85
2022/12/29 08:50:25;;;;;;;2.03;1.20;;;;;;;10.72;60.88;95046.72;5021954;28;20226;-84
2022/12/29 08:52:51;;;;;;;3.93;1.80;;;;;;;10.88;61.47;95038.97;5020884;28;20226;-85
2022/12/29 08:55:16;;;;;;;2.17;1.40;;;;;;;10.84;60.83;95049.81;5030534;28;20166;-84
2022/12/29 08:57:41;;;;;;;2.60;1.50;;;;;;;10.69;61.06;95052.22;5048345;28;20214;-83
2022/12/29 09:00:07;;;;;;;2.30;1.40;;;;;;;10.78;60.71;95061.69;5047355;28;20174;-83
2022/12/29 09:02:32;;;;;;;2.07;1.70;;;;;;;10.96;60.94;95048.56;5046546;28;20261;-83
2022/12/29 09:04:58;;;;;;;2.97;1.63;;;;;;;11.03;60.47;95052.91;5027158;28;20215;-85
2022/12/29 09:07:24;;;;;;;2.50;1.80;;;;;;;10.99;61.15;95045.63;5003762;28;20216;-84
2022/12/29 09:09:49;;;;;;;2.90;1.63;;;;;;;10.90;61.60;95060.38;5021034;28;20289;-83
2022/12/29 09:12:18;;;;;;;1.53;1.27;;;;;;;10.86;61.50;95066.06;5004512;28;20206;-83
2022/12/29 09:14:44;;;;;;;3.37;1.67;;;;;;;10.98;61.44;95062.19;5026594;28;20579;-82
2022/12/29 09:19:53;;;;;;;1.93;1.40;;;;;;;11.00;61.69;95076.63;5020327;28;20282;-85
2022/12/29 09:22:19;;;;;;;2.23;1.40;;;;;;;11.02;61.68;95082.47;5016543;28;20246;-83
2022/12/29 09:24:44;;;;;;;3.20;1.10;;;;;;;10.91;61.63;95077.59;5017258;28;20262;-84
2022/12/29 09:27:09;;;;;;;1.93;1.27;;;;;;;10.92;62.09;95084.41;5024417;28;20219;-84
2022/12/29 09:29:35;;;;;;;3.73;1.97;;;;;;;11.05;62.11;95089.97;5029000;28;20197;-85
2022/12/29 09:32:00;;;;;;;2.97;1.50;;;;;;;10.83;63.57;95092.34;5033589;28;20186;-85
2022/12/29 09:34:25;;;;;;;3.03;1.50;;;;;;;10.91;63.09;95087.97;5029711;28;20213;-84
2022/12/29 09:36:51;;;;;;;3.80;1.43;;;;;;;10.90;63.37;95096.75;5020923;28;20217;-85
2022/12/29 09:39:16;;;;;;;5.10;2.73;;;;;;;10.80;63.90;95090.91;5026661;28;20658;-85
2022/12/29 09:42:02;;;;;;;1.40;1.30;;;;;;;10.93;64.02;95099.03;5015911;28;20249;-84
2022/12/29 09:45:02;;;;;;;2.17;1.27;;;;;;;10.70;65.56;95096.25;5002314;28;20865;-83
2022/12/29 09:47:27;;;;;;;2.23;1.40;;;;;;;10.75;67.89;95096.56;5014509;28;20218;-84
2022/12/29 09:50:00;;;;;;;1.23;1.13;;;;;;;10.60;68.57;95098.16;5005627;28;20202;-84
2022/12/29 09:52:30;;;;;;;1.53;1.10;;;;;;;10.55;68.57;95102.19;4999584;28;20626;-84
2022/12/29 09:54:59;;;;;;;2.27;1.30;;;;;;;10.56;68.61;95109.00;4999468;28;20191;-83
2022/12/29 09:57:27;;;;;;;2.93;1.63;;;;;;;10.68;69.13;95107.72;5015317;28;20199;-83
2022/12/29 09:59:57;;;;;;;1.40;1.20;;;;;;;10.77;69.18;95099.81;5015496;28;20273;-83
2022/12/29 10:02:31;;;;;;;3.30;1.27;;;;;;;10.64;69.85;95102.06;5006610;28;20561;-84
2022/12/29 10:04:56;;;;;;;3.27;1.27;;;;;;;10.59;69.62;95088.72;5029283;28;20528;-84
2022/12/29 10:07:30;;;;;;;2.63;1.30;;;;;;;10.91;69.04;95103.56;5030294;28;20222;-84
2022/12/29 10:10:24;;;;;;;3.77;1.77;;;;;;;10.83;68.99;95106.16;5024123;28;20244;-84
2022/12/29 10:12:56;;;;;;;1.30;1.20;;;;;;;11.03;68.49;95110.06;5016186;28;20322;-84
2022/12/29 10:15:50;;;;;;;3.20;1.37;;;;;;;10.80;69.14;95111.69;5015233;28;20205;-84
2022/12/29 10:18:24;;;;;;;1.80;1.23;;;;;;;10.89;68.69;95102.94;5023162;28;20249;-84
2022/12/29 10:20:54;;;;;;;2.47;1.20;;;;;;;10.90;68.94;95101.13;5009782;28;20190;-84
2022/12/29 10:23:27;;;;;;;3.33;1.50;;;;;;;10.66;69.81;95105.31;4989062;28;20192;-83
2022/12/29 10:25:57;;;;;;;2.77;1.07;;;;;;;10.70;71.07;95098.84;5016616;28;20202;-84
2022/12/29 10:28:35;;;;;;;2.13;1.20;;;;;;;10.32;71.05;95110.53;5023501;28;20217;-84
2022/12/29 10:31:03;;;;;;;1.80;1.50;;;;;;;10.69;71.42;95114.56;5013637;28;20614;-82
2022/12/29 10:33:36;;;;;;;2.03;1.13;;;;;;;10.66;72.48;95110.50;5014644;28;20187;-85
2022/12/29 10:36:12;;;;;;;1.93;1.37;;;;;;;10.86;71.98;95116.22;5023562;28;20474;-83
2022/12/29 10:38:46;;;;;;;1.67;1.50;;;;;;;10.94;71.67;95118.00;5019595;28;20187;-84
2022/12/29 10:41:15;;;;;;;2.10;1.37;;;;;;;11.09;71.48;95105.22;5013703;28;20245;-83
2022/12/29 10:43:45;;;;;;;1.33;1.23;;;;;;;11.07;71.00;95100.19;5017843;28;20550;-84
2022/12/29 10:46:15;;;;;;;2.00;1.43;;;;;;;11.38;70.07;95092.53;5024784;28;20279;-84
2022/12/29 10:48:45;;;;;;;3.70;1.50;;;;;;;11.30;70.07;95102.94;5028405;28;20201;-83
2022/12/29 10:51:18;;;;;;;2.77;1.20;;;;;;;11.28;69.50;95081.50;5045135;28;20164;-83
2022/12/29 10:54:13;;;;;;;2.67;1.40;;;;;;;11.31;68.29;95082.00;5024058;28;20187;-83
2022/12/29 10:56:44;;;;;;;1.63;1.30;;;;;;;11.55;68.72;95086.34;4974003;28;20236;-83
2022/12/29 10:59:20;;;;;;;2.63;1.97;;;;;;;12.04;67.22;95094.09;5033733;28;20266;-83
2022/12/29 11:01:54;;;;;;;4.23;2.60;;;;;;;12.17;66.77;95096.97;5038621;28;20178;-83
2022/12/29 11:04:28;;;;;;;3.23;1.50;;;;;;;12.00;65.22;95078.97;5039935;28;20194;-82
2022/12/29 11:06:54;;;;;;;3.23;1.90;;;;;;;12.32;64.35;95094.47;5022754;28;20976;-83
2022/12/29 11:09:25;;;;;;;2.93;1.20;;;;;;;12.19;63.40;95086.38;5024568;28;20182;-83
2022/12/29 11:11:50;;;;;;;2.47;1.40;;;;;;;12.15;61.62;95085.91;5018946;28;20211;-83
2022/12/29 11:14:29;;;;;;;3.47;1.60;;;;;;;12.47;62.25;95092.78;5017658;28;20213;-83
2022/12/29 11:17:02;;;;;;;6.30;4.30;;;;;;;12.56;62.63;95095.34;5025980;28;20207;-83
2022/12/29 11:19:33;;;;;;;2.90;1.63;;;;;;;12.11;62.64;95097.66;5020911;28;20270;-83
2022/12/29 11:22:19;;;;;;;2.57;1.37;;;;;;;11.78;62.93;95103.88;5010583;28;20187;-83
2022/12/29 11:24:46;;;;;;;4.50;1.63;;;;;;;12.09;62.19;95101.38;5009816;28;20209;-83
2022/12/29 11:27:22;;;;;;;1.80;1.30;;;;;;;11.89;63.13;95119.16;5003882;28;20740;-83
2022/12/29 11:29:49;;;;;;;3.37;1.27;;;;;;;11.52;63.43;95104.09;5002295;28;20182;-83
2022/12/29 11:32:18;;;;;;;1.80;1.20;;;;;;;11.74;62.76;95115.59;5028465;28;20213;-83
2022/12/29 11:34:44;;;;;;;1.33;0.90;;;;;;;11.67;64.37;95104.25;5002965;28;20179;-83
2022/12/29 11:37:38;;;;;;;1.87;1.10;;;;;;;11.41;65.28;95120.03;5021980;28;20213;-83
2022/12/29 11:40:17;;;;;;;1.73;0.83;;;;;;;11.21;66.47;95119.50;5027983;28;20182;-82
2022/12/29 11:42:50;;;;;;;2.27;1.00;;;;;;;11.24;67.91;95129.59;5019046;28;20210;-81
2022/12/29 11:45:19;;;;;;;3.03;0.83;;;;;;;10.99;70.28;95107.97;5017954;28;20302;-83
2022/12/29 11:47:47;;;;;;;1.30;0.90;;;;;;;10.76;70.57;95124.16;4996901;28;20242;-82
2022/12/29 11:50:21;;;;;;;0.90;0.50;;;;;;;10.90;70.85;95127.13;5012767;28;20187;-83
2022/12/29 11:52:48;;;;;;;0.90;0.77;;;;;;;10.76;71.00;95103.38;5012032;28;20246;-82
2022/12/29 11:55:31;;;;;;;2.23;0.73;;;;;;;10.73;72.11;95097.69;4988580;28;20238;-83
2022/12/29 11:57:58;;;;;;;3.10;1.23;;;;;;;10.94;71.26;95095.44;5011779;28;20206;-83
2022/12/29 12:00:25;;;;;;;1.47;0.93;;;;;;;11.23;70.08;95094.19;5024378;28;20191;-81
2022/12/29 12:03:00;;;;;;;1.20;0.93;;;;;;;11.27;70.05;95090.28;5018507;28;20210;-82
2022/12/29 12:05:35;;;;;;;1.20;0.90;;;;;;;11.05;70.32;95102.94;5018880;28;20516;-83
2022/12/29 12:08:31;;;;;;;1.00;0.90;;;;;;;11.06;71.14;95091.59;5012899;28;20309;-82
2022/12/29 12:11:18;;;;;;;2.33;1.37;;;;;;;10.94;70.67;95092.03;5019489;28;20690;-82
2022/12/29 12:13:53;;;;;;;10.83;3.30;;;;;;;10.70;71.97;95091.03;4994909;28;20663;-82
2022/12/29 12:16:21;;;;;;;6.17;2.30;;;;;;;11.02;70.94;95092.84;5018123;28;20564;-83
2022/12/29 12:19:03;;;;;;;2.43;1.50;;;;;;;10.93;70.90;95093.81;5001419;28;20187;-81
2022/12/29 12:21:38;;;;;;;2.87;1.40;;;;;;;10.70;70.54;95085.03;5016063;28;20248;-82
2022/12/29 12:24:22;;;;;;;2.50;1.10;;;;;;;10.91;70.38;95082.78;5011723;28;20179;-82
2022/12/29 12:26:59;;;;;;;1.30;1.10;;;;;;;11.01;69.67;95085.22;5017575;28;20265;-83
2022/12/29 12:29:40;;;;;;;1.57;1.47;;;;;;;10.95;70.00;95078.88;5015461;28;20182;-83
2022/12/29 12:32:15;;;;;;;2.30;1.67;;;;;;;11.10;69.62;95078.25;5007862;28;20659;-82
2022/12/29 12:34:45;;;;;;;2.50;1.90;;;;;;;11.14;69.75;95070.00;5017734;28;20189;-83